createdAt,value
2023-04-16T00:04:14.915Z,240.6
2023-04-16T00:09:14.404Z,240.6
2023-04-16T00:14:11.885Z,239.6
2023-04-16T00:19:12.299Z,239.6
2023-04-16T00:24:10.919Z,240.5
2023-04-16T00:29:10.642Z,241.4
2023-04-16T00:34:08.937Z,238.9
2023-04-16T00:39:09.143Z,238.5
2023-04-16T00:44:08.963Z,239
2023-04-16T00:49:08.492Z,239.4
2023-04-16T00:54:07.375Z,241.8
2023-04-16T00:59:08.401Z,240.8
2023-04-16T01:05:28.700Z,239.2
2023-04-16T01:10:27.589Z,241.3
2023-04-16T01:15:27.014Z,241.5
2023-04-16T01:20:27.164Z,242.1
2023-04-16T01:25:25.919Z,238.9
2023-04-16T01:30:29.520Z,240.5
2023-04-16T01:35:25.099Z,239.7
2023-04-16T01:40:24.756Z,237.6
2023-04-16T01:45:24.199Z,237.4
2023-04-16T01:55:22.334Z,237.7
2023-04-16T03:04:19.712Z,239.4
2023-04-16T03:09:18.831Z,239.4
2023-04-16T03:14:17.890Z,238.7
2023-04-16T03:19:17.393Z,239.4
2023-04-16T03:24:17.387Z,241.6
2023-04-16T03:29:16.867Z,239.2
2023-04-16T03:34:17.787Z,238.7
2023-04-16T03:39:15.522Z,236.5
2023-04-16T03:44:15.307Z,236.2
2023-04-16T03:49:14.132Z,240.1
2023-04-16T03:54:14.289Z,239.4
2023-04-16T03:59:12.818Z,239.9
2023-04-16T04:04:12.931Z,239.1
2023-04-16T04:09:12.569Z,239.4
2023-04-16T04:14:13.673Z,239.2
2023-04-16T04:19:10.681Z,239.2
2023-04-16T04:24:10.118Z,239.2
2023-04-16T04:29:10.731Z,238.9
2023-04-16T04:34:09.751Z,237.8
2023-04-16T04:39:08.209Z,236.6
2023-04-16T04:44:07.936Z,238.8
2023-04-16T04:49:08.430Z,235.3
2023-04-16T04:54:07.314Z,237.7
2023-04-16T04:59:06.818Z,239.5
2023-04-16T05:05:27.460Z,241.4
2023-04-16T05:10:26.949Z,241.8
2023-04-16T05:15:28.000Z,239.7
2023-04-16T05:20:25.173Z,241.9
2023-04-16T05:25:24.878Z,240
2023-04-16T05:30:24.223Z,239.4
2023-04-16T05:35:24.116Z,241.9
2023-04-16T05:40:23.450Z,242.4
2023-04-16T05:45:22.550Z,241.3
2023-04-16T05:50:22.227Z,242.2
2023-04-16T05:55:23.035Z,240.4
2023-04-16T05:59:43.785Z,233.5
2023-04-16T06:09:43.825Z,238.7
2023-04-16T06:19:52.002Z,240.1
2023-04-16T06:24:52.081Z,240.7
2023-04-16T06:29:54.103Z,239.8
2023-04-16T06:39:51.199Z,242.1
2023-04-16T06:44:53.283Z,240.7
2023-04-16T06:49:50.773Z,241.6
2023-04-16T06:54:50.455Z,242.3
2023-04-16T07:04:25.907Z,245.2
2023-04-16T07:09:24.448Z,245.5
2023-04-16T07:14:24.148Z,245.9
2023-04-16T07:19:25.566Z,246.1
2023-04-16T07:24:22.371Z,249.9
2023-04-16T07:29:22.045Z,251.3
2023-04-16T07:34:21.244Z,247.6
2023-04-16T07:39:20.755Z,248.7
2023-04-16T07:44:20.060Z,248.4
2023-04-16T07:49:20.564Z,248
2023-04-16T07:54:19.401Z,248.2
2023-04-16T10:50:23.968Z,261.4
2023-04-16T11:04:43.387Z,250.2
2023-04-16T11:09:52.292Z,255.2
2023-04-16T11:14:51.835Z,256.4
2023-04-16T11:19:53.597Z,251.6
2023-04-16T11:24:49.580Z,252.6
2023-04-16T11:29:49.911Z,252.3
2023-04-16T11:34:49.708Z,253.2
2023-04-16T11:39:47.833Z,254
2023-04-16T11:44:48.025Z,257.7
2023-04-16T11:49:48.087Z,259
2023-04-16T11:54:47.838Z,256.5
2023-04-16T11:59:25.403Z,268
2023-04-16T12:04:25.013Z,266.2
2023-04-16T12:09:23.566Z,267.5
2023-04-16T12:14:23.102Z,265.8
2023-04-16T12:19:22.478Z,263.6
2023-04-16T12:24:21.965Z,260.9
2023-04-16T12:29:21.327Z,259.2
2023-04-16T12:34:20.001Z,257.2
2023-04-16T12:39:19.414Z,261.7
2023-04-16T12:44:19.346Z,260.5
2023-04-16T12:49:20.587Z,258.9
2023-04-16T12:54:17.390Z,258
2023-04-16T14:05:31.584Z,273.6
2023-04-16T14:10:30.742Z,274.7
2023-04-16T14:15:30.206Z,272.9
2023-04-16T14:20:30.309Z,272.2
2023-04-16T14:25:29.406Z,273.4
2023-04-16T14:35:27.764Z,268.9
2023-04-16T14:40:27.223Z,270.2
2023-04-16T14:50:25.705Z,269.2
2023-04-16T14:55:24.067Z,269.4
2023-04-16T14:59:27.061Z,270.7
2023-04-16T15:19:25.143Z,274.8
2023-04-16T17:04:14.089Z,276.7
2023-04-16T17:09:12.991Z,273.4
2023-04-16T17:14:13.266Z,277
2023-04-16T17:19:11.212Z,275
2023-04-16T17:24:13.425Z,278.8
2023-04-16T17:29:10.854Z,273.5
2023-04-16T17:34:11.753Z,274.2
2023-04-16T17:39:09.365Z,271.8
2023-04-16T17:44:11.195Z,275.1
2023-04-16T17:49:08.635Z,274.8
2023-04-16T17:54:07.779Z,273.7
2023-04-16T17:59:08.912Z,271.8
2023-04-16T18:05:29.562Z,275.8
2023-04-16T18:10:29.020Z,273.6
2023-04-16T18:15:28.598Z,273.9
2023-04-16T18:20:27.083Z,268.1
2023-04-16T18:25:34.270Z,269
2023-04-16T18:30:27.027Z,268.8
2023-04-16T19:24:55.126Z,259.7
2023-04-16T20:04:24.610Z,261.9
2023-04-16T20:09:24.096Z,261.5
2023-04-16T20:14:22.631Z,263.7
2023-04-16T20:19:30.041Z,262.1
2023-04-16T20:24:22.088Z,263.6
2023-04-16T20:29:23.308Z,261.6
2023-04-16T20:34:20.115Z,258.4
2023-04-16T20:39:20.072Z,259.6
2023-04-16T20:44:20.084Z,257
2023-04-16T20:49:19.599Z,258.9
2023-04-16T20:54:17.738Z,255.9
2023-04-16T20:59:17.696Z,259.9
2023-04-16T21:09:17.039Z,258.3
2023-04-16T21:14:16.607Z,258.9
2023-04-16T21:19:16.091Z,256.7
2023-04-16T21:34:15.395Z,254.6
2023-04-16T21:39:13.428Z,253.1
2023-04-16T21:49:12.658Z,255.8
2023-04-16T21:54:12.098Z,256.2
2023-04-16T21:59:10.088Z,255.1
2023-04-16T22:04:10.206Z,254.5
2023-04-16T22:09:09.096Z,252.9
2023-04-16T22:14:10.025Z,253
2023-04-16T22:19:07.340Z,253.7
2023-04-16T22:24:06.926Z,254
2023-04-16T22:29:07.670Z,255.1
2023-04-16T22:34:06.992Z,255.2
2023-04-16T22:39:05.076Z,255.3
2023-04-16T22:44:18.107Z,256.4
2023-04-16T22:49:05.769Z,254.4
2023-04-16T22:54:04.085Z,255.2
2023-04-16T22:59:03.694Z,253.9
2023-04-16T23:05:23.709Z,258.8
2023-04-16T23:10:23.551Z,258
2023-04-16T23:15:23.783Z,258.4
2023-04-16T23:20:21.438Z,260.7
2023-04-16T23:25:21.282Z,259.8
2023-04-16T23:30:20.382Z,257.6
2023-04-16T23:40:18.232Z,257.7
2023-04-16T23:45:18.869Z,226.5
2023-04-16T23:50:17.902Z,228.5
2023-04-16T23:55:18.812Z,223
